Taylor, Wisconsin
Current Conditions -  °F | °C
As of 12:55 PM on Saturday 25 Oct 2014 (Local Time) from KBCK Reporting Station
Clear Clear  
Wind Chill: 64°   Ceiling: Unl
Heat Index: 64°   Visibility: 10mi
Dew Point: 28°   Wind: 15mph
Humidity: 26%   Direction: 280°W
Pressure: 29.97"   Gusts: 23mph
Location:  44.32°N, 91.12°W
Report Text: KBCK 251755Z AUTO 28013G20KT 10SM CLR 18/M02 A2997 RMK AO2 T01761020 10176 20029
Loading
Personal Weather Stations






























Interactive Weather Map
Tropical Storm Tracking
New forecast layout! Learn more

10-Day Weather Forecast

Advertisements
Track Severe Weather on mobile